createdAt,value
2019-03-21T00:00:22.129Z,73.95
2019-03-21T00:02:49.389Z,74.31
2019-03-21T00:05:16.696Z,74.43
2019-03-21T00:07:44.219Z,74.47
2019-03-21T00:10:44.324Z,74.59
2019-03-21T00:13:11.981Z,74.56
2019-03-21T00:15:41.139Z,74.57
2019-03-21T00:18:10.275Z,74.43
2019-03-21T00:20:37.769Z,74.07
2019-03-21T00:23:05.059Z,74.26
2019-03-21T00:25:32.466Z,74.82
2019-03-21T00:27:59.809Z,74.68
2019-03-21T00:30:29.292Z,75.30
2019-03-21T00:32:56.842Z,75.10
2019-03-21T00:35:24.171Z,75.18
2019-03-21T00:37:51.492Z,75.59
2019-03-21T00:40:22.170Z,75.81
2019-03-21T00:42:50.180Z,75.92
2019-03-21T00:45:17.700Z,75.57
2019-03-21T00:47:45.176Z,75.80
2019-03-21T00:50:14.269Z,76.23
2019-03-21T00:52:41.491Z,75.97
2019-03-21T00:55:09.994Z,75.97
2019-03-21T00:57:37.252Z,75.76
2019-03-21T01:00:05.693Z,76.20
2019-03-21T01:02:32.894Z,77.05
2019-03-21T01:05:00.074Z,76.82
2019-03-21T01:07:27.308Z,76.84
2019-03-21T01:09:54.638Z,76.55
2019-03-21T01:12:21.865Z,76.78
2019-03-21T01:14:49.301Z,76.65
2019-03-21T01:17:16.693Z,76.53
2019-03-21T01:19:43.940Z,76.48
2019-03-21T01:22:11.402Z,76.90
2019-03-21T01:24:38.705Z,76.84
2019-03-21T01:27:05.924Z,76.78
2019-03-21T01:29:33.374Z,76.63
2019-03-21T01:32:00.672Z,76.96
2019-03-21T01:34:30.267Z,76.53
2019-03-21T01:36:57.463Z,77.06
2019-03-21T01:39:24.689Z,76.99
2019-03-21T01:41:52.078Z,77.18
2019-03-21T01:44:19.305Z,77.67
2019-03-21T01:46:46.804Z,76.75
2019-03-21T01:49:14.211Z,76.92
2019-03-21T01:51:41.433Z,76.96
2019-03-21T01:54:08.618Z,77.49
2019-03-21T01:56:35.949Z,76.91
2019-03-21T01:59:03.611Z,76.92
2019-03-21T02:01:30.745Z,77.53
2019-03-21T02:03:58.108Z,77.60
2019-03-21T02:06:25.480Z,77.92
2019-03-21T02:08:52.844Z,77.82
2019-03-21T02:11:20.081Z,77.96
2019-03-21T02:13:47.385Z,77.87
2019-03-21T02:16:14.757Z,78.65
2019-03-21T02:18:42.391Z,78.28
2019-03-21T02:21:09.703Z,78.80
2019-03-21T02:23:36.972Z,78.94
2019-03-21T02:26:04.408Z,78.57
2019-03-21T02:28:31.772Z,78.99
2019-03-21T02:30:59.003Z,78.50
2019-03-21T02:33:28.628Z,78.61
2019-03-21T02:35:55.857Z,78.55
2019-03-21T02:38:23.181Z,78.29
2019-03-21T02:40:50.729Z,79.28
2019-03-21T02:43:18.056Z,78.54
2019-03-21T02:45:45.451Z,78.89
2019-03-21T02:48:12.781Z,78.78
2019-03-21T02:50:39.971Z,79.42
2019-03-21T02:53:07.347Z,78.71
2019-03-21T02:55:34.726Z,78.42
2019-03-21T02:58:01.909Z,78.57
2019-03-21T03:00:30.321Z,78.87
2019-03-21T03:02:58.526Z,78.76
2019-03-21T03:05:26.878Z,78.43
2019-03-21T03:07:54.073Z,78.48
2019-03-21T03:10:24.486Z,78.96
2019-03-21T03:12:51.788Z,79.26
2019-03-21T03:15:22.932Z,79.23
2019-03-21T03:17:49.175Z,79.10
2019-03-21T03:20:16.518Z,79.38
2019-03-21T03:22:43.800Z,79.65
2019-03-21T03:25:11.787Z,79.72
2019-03-21T03:27:39.040Z,79.96
2019-03-21T03:30:09.437Z,80.04
2019-03-21T03:32:36.831Z,80.20
2019-03-21T03:35:05.355Z,80.04
2019-03-21T03:37:32.656Z,79.50
2019-03-21T03:39:59.936Z,79.76
2019-03-21T03:42:27.166Z,80.57
2019-03-21T03:44:54.491Z,80.50
2019-03-21T03:47:21.652Z,80.42
2019-03-21T03:49:48.970Z,80.20
2019-03-21T03:52:16.162Z,79.88
2019-03-21T03:54:43.380Z,80.14
2019-03-21T03:57:10.753Z,80.34
2019-03-21T03:59:38.371Z,80.32
2019-03-21T04:02:05.545Z,80.17
2019-03-21T04:04:32.737Z,80.08
2019-03-21T04:06:59.982Z,80.30
2019-03-21T04:09:27.234Z,80.00
2019-03-21T04:11:54.571Z,79.82
2019-03-21T04:14:21.716Z,80.25
2019-03-21T04:16:49.006Z,80.73
2019-03-21T04:19:16.299Z,80.64
2019-03-21T04:21:43.682Z,80.58
2019-03-21T04:24:10.897Z,80.26
2019-03-21T04:26:38.180Z,80.82
2019-03-21T04:29:05.358Z,80.59
2019-03-21T04:31:32.910Z,80.53
2019-03-21T04:34:01.806Z,80.72
2019-03-21T04:36:29.812Z,80.83
2019-03-21T04:38:58.064Z,80.76
2019-03-21T04:41:25.430Z,80.96
2019-03-21T04:43:52.655Z,81.00
2019-03-21T04:46:20.038Z,80.76
2019-03-21T04:48:47.430Z,79.98
2019-03-21T04:51:14.833Z,80.40
2019-03-21T04:53:42.124Z,80.68
2019-03-21T04:56:09.458Z,80.97
2019-03-21T04:58:36.546Z,81.57
2019-03-21T05:01:04.081Z,81.05
2019-03-21T05:03:31.320Z,81.96
2019-03-21T05:05:58.514Z,81.52
2019-03-21T05:08:26.014Z,81.67
2019-03-21T05:10:53.663Z,81.86
2019-03-21T05:13:20.885Z,81.56
2019-03-21T05:15:48.324Z,81.58
2019-03-21T05:18:28.612Z,81.60
2019-03-21T05:20:56.310Z,81.51
2019-03-21T05:23:23.529Z,81.13
2019-03-21T05:25:50.812Z,81.59
2019-03-21T05:28:18.150Z,81.25
2019-03-21T05:30:49.267Z,80.92
2019-03-21T05:33:16.828Z,80.89
2019-03-21T05:35:44.269Z,81.16
2019-03-21T05:38:11.931Z,80.86
2019-03-21T05:40:39.216Z,80.71
2019-03-21T05:43:09.881Z,80.96
2019-03-21T05:45:37.256Z,80.99
2019-03-21T05:48:04.832Z,80.09
2019-03-21T05:50:32.055Z,79.33
2019-03-21T05:52:59.275Z,79.98
2019-03-21T05:55:26.910Z,80.36
2019-03-21T05:57:54.476Z,80.54
2019-03-21T06:00:28.223Z,80.45
2019-03-21T06:02:55.539Z,79.57
2019-03-21T06:05:22.905Z,79.34
2019-03-21T06:08:11.451Z,79.01
2019-03-21T06:10:38.915Z,79.16
2019-03-21T06:13:06.157Z,78.31
2019-03-21T06:15:34.477Z,78.36
2019-03-21T06:18:49.722Z,77.47
2019-03-21T06:21:24.556Z,76.89
2019-03-21T06:24:29.618Z,77.16
2019-03-21T06:27:33.489Z,76.92
2019-03-21T06:30:00.968Z,76.37
2019-03-21T06:32:28.730Z,75.57
2019-03-21T06:34:56.394Z,74.79
2019-03-21T06:37:24.075Z,74.22
2019-03-21T06:39:51.288Z,73.79
2019-03-21T06:42:18.763Z,73.26
2019-03-21T06:44:46.160Z,73.26
2019-03-21T06:47:13.431Z,72.96
2019-03-21T06:49:40.779Z,72.54
2019-03-21T06:52:08.402Z,72.20
2019-03-21T06:54:35.770Z,71.39
2019-03-21T06:57:03.183Z,70.98
2019-03-21T06:59:31.136Z,69.76
2019-03-21T07:01:58.319Z,69.04
2019-03-21T07:04:25.448Z,69.84
2019-03-21T07:06:53.118Z,68.93
2019-03-21T07:09:29.463Z,67.52
2019-03-21T07:11:56.844Z,68.10
2019-03-21T07:14:24.105Z,66.26
2019-03-21T07:17:00.101Z,67.09
2019-03-21T07:19:20.397Z,66.78
2019-03-21T07:21:47.688Z,65.50
2019-03-21T07:24:14.941Z,65.61
2019-03-21T07:26:42.035Z,65.69
2019-03-21T07:29:09.323Z,64.93
2019-03-21T07:31:36.684Z,64.37
2019-03-21T07:34:04.300Z,63.35
2019-03-21T07:36:31.645Z,64.03
2019-03-21T07:38:58.934Z,62.99
2019-03-21T07:41:26.176Z,62.78
2019-03-21T07:43:53.531Z,62.44
2019-03-21T07:46:20.988Z,60.84
2019-03-21T07:48:48.146Z,61.46
2019-03-21T07:51:15.511Z,61.32
2019-03-21T07:53:42.833Z,60.23
2019-03-21T07:56:10.121Z,60.33
2019-03-21T07:58:37.488Z,59.43
2019-03-21T08:01:04.828Z,57.02
2019-03-21T08:03:32.011Z,58.17
2019-03-21T08:05:59.188Z,55.65
2019-03-21T08:08:26.523Z,56.52
2019-03-21T08:10:53.706Z,55.99
2019-03-21T08:13:21.027Z,49.95
2019-03-21T08:15:48.334Z,47.10
2019-03-21T08:18:16.784Z,42.45
2019-03-21T08:20:55.649Z,37.99
2019-03-21T08:23:13.117Z,33.92
2019-03-21T08:25:40.531Z,31.37
2019-03-21T08:28:08.013Z,30.33
2019-03-21T08:30:36.375Z,28.65
2019-03-21T08:33:04.489Z,27.18
2019-03-21T08:35:31.786Z,25.66
2019-03-21T08:37:58.971Z,25.86
2019-03-21T08:40:26.283Z,25.19
2019-03-21T08:42:53.528Z,23.35
2019-03-21T08:45:20.897Z,22.43
2019-03-21T08:47:48.132Z,22.49
2019-03-21T08:50:15.407Z,22.45
2019-03-21T08:52:42.762Z,22.01
2019-03-21T08:55:09.965Z,21.71
2019-03-21T08:57:37.160Z,22.08
2019-03-21T09:00:05.140Z,21.05
2019-03-21T09:02:32.503Z,21.48
2019-03-21T09:04:59.972Z,21.58
2019-03-21T09:07:27.134Z,22.13
2019-03-21T09:09:54.349Z,24.17
2019-03-21T09:12:21.712Z,25.71
2019-03-21T09:14:48.895Z,26.19
2019-03-21T09:17:16.082Z,26.75
2019-03-21T09:19:43.291Z,26.95
2019-03-21T09:22:11.669Z,28.21
2019-03-21T09:24:38.865Z,28.45
2019-03-21T09:27:06.070Z,28.78
2019-03-21T09:29:33.405Z,29.40
2019-03-21T09:32:00.700Z,29.21
2019-03-21T09:34:27.910Z,29.49
2019-03-21T09:36:56.165Z,28.30
2019-03-21T09:39:23.521Z,27.44
2019-03-21T09:41:50.808Z,26.59
2019-03-21T09:44:25.502Z,26.98
2019-03-21T09:46:52.685Z,26.31
2019-03-21T09:49:19.889Z,25.61
2019-03-21T09:51:47.083Z,25.61
2019-03-21T09:54:14.304Z,24.85
2019-03-21T09:56:41.547Z,24.86
2019-03-21T09:59:08.849Z,25.39
2019-03-21T10:01:36.148Z,23.78
2019-03-21T10:04:03.566Z,23.96
2019-03-21T10:06:30.832Z,23.92
2019-03-21T10:08:58.249Z,23.28
2019-03-21T10:11:25.353Z,21.60
2019-03-21T10:13:52.538Z,21.16
2019-03-21T10:16:21.030Z,21.16
2019-03-21T10:18:48.219Z,22.27
2019-03-21T10:21:15.365Z,22.33
2019-03-21T10:23:42.745Z,21.84
2019-03-21T10:26:09.882Z,22.05
2019-03-21T10:28:37.191Z,21.48
2019-03-21T10:31:04.486Z,19.42
2019-03-21T10:33:31.581Z,21.23
2019-03-21T10:35:58.985Z,20.90
2019-03-21T10:38:26.223Z,21.90
2019-03-21T10:40:53.505Z,23.18
2019-03-21T10:43:20.674Z,24.36
2019-03-21T10:45:48.028Z,24.50
2019-03-21T10:48:15.221Z,23.00
2019-03-21T10:50:42.504Z,21.81
2019-03-21T10:53:09.865Z,21.26
2019-03-21T10:55:37.620Z,21.19
2019-03-21T10:58:05.635Z,20.98
2019-03-21T11:00:32.945Z,19.98
2019-03-21T11:03:00.368Z,20.35
2019-03-21T11:05:27.652Z,20.66
2019-03-21T11:07:54.928Z,21.39
2019-03-21T11:10:22.110Z,20.62
2019-03-21T11:12:49.432Z,20.64
2019-03-21T11:15:16.757Z,20.80
2019-03-21T11:17:43.942Z,21.64
2019-03-21T11:20:19.349Z,21.12
2019-03-21T11:22:46.414Z,21.25
2019-03-21T11:25:13.606Z,22.11
2019-03-21T11:27:40.767Z,22.21
2019-03-21T11:30:15.922Z,23.34
2019-03-21T11:32:37.561Z,21.60
2019-03-21T11:35:04.875Z,21.72
2019-03-21T11:37:32.269Z,20.49
2019-03-21T11:39:59.686Z,21.12
2019-03-21T11:42:26.885Z,21.66
2019-03-21T11:44:54.012Z,22.62
2019-03-21T11:47:21.332Z,23.06
2019-03-21T11:49:48.558Z,22.43
2019-03-21T11:52:18.416Z,22.64
2019-03-21T11:54:45.078Z,22.77
2019-03-21T11:57:12.297Z,21.68
2019-03-21T11:59:51.146Z,21.13
2019-03-21T12:02:08.625Z,21.84
2019-03-21T12:04:35.914Z,22.54
2019-03-21T12:07:03.212Z,21.96
2019-03-21T12:09:30.448Z,22.77
2019-03-21T12:11:57.727Z,22.65
2019-03-21T12:14:24.925Z,24.58
2019-03-21T12:16:52.099Z,24.60
2019-03-21T12:19:19.535Z,23.85
2019-03-21T12:21:46.789Z,23.85
2019-03-21T12:24:16.896Z,24.35
2019-03-21T12:26:44.069Z,25.03
2019-03-21T12:29:11.403Z,23.43
2019-03-21T12:31:38.831Z,23.68
2019-03-21T12:34:05.983Z,23.87
2019-03-21T12:36:33.308Z,23.40
2019-03-21T12:39:00.682Z,23.33
2019-03-21T12:41:27.887Z,23.10
2019-03-21T12:43:55.141Z,22.70
2019-03-21T12:46:22.636Z,22.51
2019-03-21T12:48:49.754Z,23.01
2019-03-21T12:51:16.992Z,22.50
2019-03-21T12:53:44.350Z,22.24
2019-03-21T12:56:11.591Z,21.83
2019-03-21T12:58:38.889Z,20.38
2019-03-21T13:01:06.377Z,21.12
2019-03-21T13:03:33.476Z,21.82
2019-03-21T13:06:00.824Z,21.33
2019-03-21T13:08:33.801Z,22.79
2019-03-21T13:10:57.077Z,24.09
2019-03-21T13:13:24.222Z,23.55
2019-03-21T13:15:51.321Z,25.11
2019-03-21T13:18:18.609Z,24.49
2019-03-21T13:20:45.885Z,25.19
2019-03-21T13:23:13.098Z,26.11
2019-03-21T13:25:40.529Z,26.97
2019-03-21T13:28:07.740Z,27.70
2019-03-21T13:30:35.403Z,26.72
2019-03-21T13:33:03.171Z,27.92
2019-03-21T13:35:32.923Z,27.40
2019-03-21T13:37:59.329Z,28.88
2019-03-21T13:40:26.780Z,26.38
2019-03-21T13:42:57.121Z,27.96
2019-03-21T13:45:24.408Z,26.86
2019-03-21T13:47:51.764Z,28.06
2019-03-21T13:50:19.235Z,28.94
2019-03-21T13:52:46.303Z,27.94
2019-03-21T13:55:13.631Z,28.17
2019-03-21T13:57:40.842Z,27.72
2019-03-21T14:00:09.842Z,28.33
2019-03-21T14:02:37.086Z,28.17
2019-03-21T14:05:05.180Z,28.71
2019-03-21T14:07:32.349Z,27.39
2019-03-21T14:09:59.654Z,28.37
2019-03-21T14:12:26.886Z,29.30
2019-03-21T14:14:53.981Z,29.70
2019-03-21T14:17:22.112Z,28.68
2019-03-21T14:19:49.907Z,28.05
2019-03-21T14:22:17.164Z,28.40
2019-03-21T14:24:44.464Z,28.48
2019-03-21T14:27:11.803Z,30.06
2019-03-21T14:29:39.004Z,30.28
2019-03-21T14:32:06.170Z,29.81
2019-03-21T14:34:33.408Z,29.48
2019-03-21T14:37:00.792Z,27.25
2019-03-21T14:39:28.038Z,27.67
2019-03-21T14:41:55.210Z,28.69
2019-03-21T14:44:22.722Z,27.64
2019-03-21T14:46:54.373Z,28.59
2019-03-21T14:49:21.817Z,28.62
2019-03-21T14:51:49.070Z,28.65
2019-03-21T14:54:16.215Z,29.19
2019-03-21T14:56:43.683Z,27.93
2019-03-21T14:59:11.132Z,28.54
2019-03-21T15:01:40.666Z,27.98
2019-03-21T15:04:07.606Z,28.25
2019-03-21T15:06:35.106Z,25.46
2019-03-21T15:09:06.980Z,23.86
2019-03-21T15:11:37.140Z,23.14
2019-03-21T15:14:04.443Z,21.41
2019-03-21T15:16:31.703Z,20.84
2019-03-21T15:19:00.599Z,19.74
2019-03-21T15:21:28.050Z,19.46
2019-03-21T15:23:59.631Z,19.64
2019-03-21T15:26:24.651Z,20.08
2019-03-21T15:28:51.843Z,19.79
2019-03-21T15:31:19.654Z,20.25
2019-03-21T15:33:46.891Z,20.74
2019-03-21T15:36:14.106Z,22.78
2019-03-21T15:38:41.378Z,23.72
2019-03-21T15:41:08.596Z,24.79
2019-03-21T15:43:35.695Z,25.30
2019-03-21T15:46:03.154Z,26.22
2019-03-21T15:48:30.344Z,27.65
2019-03-21T15:51:04.306Z,27.39
2019-03-21T15:53:26.571Z,27.51
2019-03-21T15:55:53.887Z,27.85
2019-03-21T15:58:21.081Z,28.31
2019-03-21T16:00:48.290Z,28.70
2019-03-21T16:03:15.706Z,28.65
2019-03-21T16:05:43.011Z,30.31
2019-03-21T16:08:10.297Z,29.86
2019-03-21T16:10:37.622Z,29.87
2019-03-21T16:13:04.815Z,30.43
2019-03-21T16:15:32.155Z,31.33
2019-03-21T16:17:59.433Z,30.82
2019-03-21T16:20:26.791Z,31.47
2019-03-21T16:22:54.109Z,31.79
2019-03-21T16:25:21.441Z,31.76
2019-03-21T16:27:48.723Z,31.42
2019-03-21T16:30:16.008Z,32.62
2019-03-21T16:32:43.197Z,32.39
2019-03-21T16:35:10.614Z,32.55
2019-03-21T16:37:37.780Z,32.52
2019-03-21T16:40:05.749Z,33.32
2019-03-21T16:42:32.974Z,33.94
2019-03-21T16:45:00.410Z,33.66
2019-03-21T16:47:27.722Z,32.85
2019-03-21T16:49:55.015Z,33.20
2019-03-21T16:52:22.141Z,34.39
2019-03-21T16:54:51.110Z,34.05
2019-03-21T16:57:18.366Z,34.24
2019-03-21T16:59:45.544Z,34.31
2019-03-21T17:02:12.716Z,34.26
2019-03-21T17:04:40.173Z,34.46
2019-03-21T17:07:07.215Z,34.66
2019-03-21T17:09:34.487Z,34.90
2019-03-21T17:12:01.952Z,35.36
2019-03-21T17:14:29.123Z,35.84
2019-03-21T17:16:56.287Z,36.87
2019-03-21T17:19:23.664Z,38.22
2019-03-21T17:21:50.849Z,38.48
2019-03-21T17:24:28.789Z,39.93
2019-03-21T17:26:47.128Z,38.54
2019-03-21T17:29:14.337Z,39.01
2019-03-21T17:31:41.577Z,39.78
2019-03-21T17:34:08.896Z,39.51
2019-03-21T17:36:36.599Z,38.94
2019-03-21T17:39:06.589Z,40.15
2019-03-21T17:41:34.361Z,41.31
2019-03-21T17:44:01.852Z,40.54
2019-03-21T17:46:29.028Z,40.51
2019-03-21T17:48:56.337Z,40.29
2019-03-21T17:51:23.614Z,40.28
2019-03-21T17:53:50.867Z,40.53
2019-03-21T17:56:18.067Z,40.00
2019-03-21T17:58:45.232Z,40.19
2019-03-21T18:01:12.595Z,40.54
2019-03-21T18:03:39.895Z,40.52
2019-03-21T18:06:07.201Z,40.47
2019-03-21T18:08:35.124Z,40.54
2019-03-21T18:11:02.263Z,40.67
2019-03-21T18:13:29.583Z,40.75
2019-03-21T18:15:56.976Z,41.12
2019-03-21T18:18:24.324Z,41.58
2019-03-21T18:20:51.712Z,42.66
2019-03-21T18:23:18.935Z,42.75
2019-03-21T18:25:46.227Z,42.99
2019-03-21T18:28:13.609Z,43.08
2019-03-21T18:30:40.793Z,43.02
2019-03-21T18:33:08.125Z,43.17
2019-03-21T18:35:35.427Z,42.93
2019-03-21T18:38:03.208Z,43.60
2019-03-21T18:40:30.528Z,43.40
2019-03-21T18:42:58.257Z,44.89
2019-03-21T18:45:25.498Z,43.84
2019-03-21T18:47:52.801Z,44.80
2019-03-21T18:50:20.200Z,44.83
2019-03-21T18:52:47.823Z,45.29
2019-03-21T18:55:15.195Z,44.73
2019-03-21T18:57:42.497Z,44.86
2019-03-21T19:00:10.794Z,44.72
2019-03-21T19:02:38.024Z,45.15
2019-03-21T19:05:06.243Z,46.00
2019-03-21T19:07:33.788Z,46.06
2019-03-21T19:10:01.693Z,45.73
2019-03-21T19:12:29.066Z,46.30
2019-03-21T19:14:56.329Z,45.55
2019-03-21T19:17:23.673Z,46.47
2019-03-21T19:19:50.926Z,46.01
2019-03-21T19:22:18.212Z,46.06
2019-03-21T19:24:45.629Z,46.89
2019-03-21T19:27:12.884Z,46.97
2019-03-21T19:29:40.270Z,47.12
2019-03-21T19:32:07.612Z,47.67
2019-03-21T19:34:34.816Z,47.45
2019-03-21T19:37:02.108Z,47.58
2019-03-21T19:39:29.421Z,47.66
2019-03-21T19:41:56.608Z,48.55
2019-03-21T19:44:23.719Z,48.44
2019-03-21T19:46:50.995Z,48.07
2019-03-21T19:49:18.202Z,48.56
2019-03-21T19:51:45.415Z,48.99
2019-03-21T19:54:12.654Z,48.84
2019-03-21T19:56:39.739Z,49.16
2019-03-21T19:59:06.898Z,49.27
2019-03-21T20:01:34.095Z,49.26
2019-03-21T20:04:01.275Z,49.56
2019-03-21T20:06:28.531Z,50.26
2019-03-21T20:08:56.826Z,50.36
2019-03-21T20:11:24.596Z,50.10
2019-03-21T20:13:51.756Z,50.32
2019-03-21T20:16:18.940Z,50.68
2019-03-21T20:18:47.919Z,51.50
2019-03-21T20:21:15.186Z,51.26
2019-03-21T20:23:42.343Z,51.97
2019-03-21T20:26:09.694Z,52.25
2019-03-21T20:28:36.937Z,52.68
2019-03-21T20:31:04.232Z,52.71
2019-03-21T20:33:31.441Z,53.44
2019-03-21T20:35:58.772Z,53.39
2019-03-21T20:38:26.128Z,53.59
2019-03-21T20:40:53.422Z,54.42
2019-03-21T20:43:20.680Z,54.66
2019-03-21T20:45:47.890Z,54.55
2019-03-21T20:48:15.321Z,55.07
2019-03-21T20:50:42.772Z,55.32
2019-03-21T20:53:09.985Z,55.58
2019-03-21T20:55:37.496Z,56.35
2019-03-21T20:58:04.710Z,56.69
2019-03-21T21:00:32.062Z,56.52
2019-03-21T21:02:59.355Z,56.65
2019-03-21T21:05:26.742Z,56.75
2019-03-21T21:07:54.174Z,56.13
2019-03-21T21:10:21.495Z,56.29
2019-03-21T21:12:49.690Z,56.31
2019-03-21T21:15:17.654Z,56.89
2019-03-21T21:17:45.007Z,57.34
2019-03-21T21:20:12.986Z,57.35
2019-03-21T21:22:40.453Z,57.30
2019-03-21T21:25:08.221Z,57.68
2019-03-21T21:27:35.825Z,57.94
2019-03-21T21:30:04.642Z,58.32
2019-03-21T21:32:31.894Z,58.45
2019-03-21T21:34:59.240Z,59.04
2019-03-21T21:37:26.414Z,59.90
2019-03-21T21:39:53.673Z,59.44
2019-03-21T21:42:20.835Z,59.67
2019-03-21T21:44:48.442Z,59.74
2019-03-21T21:47:15.619Z,60.65
2019-03-21T21:49:42.792Z,60.05
2019-03-21T21:52:10.170Z,60.36
2019-03-21T21:54:37.398Z,60.64
2019-03-21T21:57:05.162Z,60.59
2019-03-21T21:59:33.793Z,61.16
2019-03-21T22:02:01.635Z,61.22
2019-03-21T22:04:29.004Z,61.52
2019-03-21T22:06:56.538Z,61.94
2019-03-21T22:09:23.883Z,62.39
2019-03-21T22:11:51.808Z,63.77
2019-03-21T22:14:21.060Z,62.90
2019-03-21T22:16:48.601Z,63.39
2019-03-21T22:19:15.822Z,63.79
2019-03-21T22:21:43.082Z,63.14
2019-03-21T22:24:10.358Z,63.58
2019-03-21T22:26:37.570Z,64.35
2019-03-21T22:29:04.997Z,64.75
2019-03-21T22:31:32.227Z,64.10
2019-03-21T22:33:59.423Z,65.30
2019-03-21T22:36:26.742Z,65.03
2019-03-21T22:38:54.989Z,64.93
2019-03-21T22:41:22.206Z,65.31
2019-03-21T22:43:49.380Z,65.38
2019-03-21T22:46:16.568Z,65.96
2019-03-21T22:48:43.867Z,65.91
2019-03-21T22:51:11.057Z,65.91
2019-03-21T22:53:38.112Z,65.49
2019-03-21T22:56:05.292Z,65.41
2019-03-21T22:58:32.767Z,66.84
2019-03-21T23:01:00.541Z,66.82
2019-03-21T23:03:27.574Z,66.62
2019-03-21T23:05:54.752Z,66.92
2019-03-21T23:08:22.023Z,66.17
2019-03-21T23:10:49.091Z,66.70
2019-03-21T23:13:16.311Z,66.88
2019-03-21T23:15:43.513Z,67.50
2019-03-21T23:18:10.690Z,67.34
2019-03-21T23:20:37.969Z,67.51
2019-03-21T23:23:05.187Z,67.89
2019-03-21T23:25:32.252Z,68.49
2019-03-21T23:27:59.369Z,67.80
2019-03-21T23:30:26.601Z,67.81
2019-03-21T23:32:53.889Z,67.83
2019-03-21T23:35:21.117Z,68.69
2019-03-21T23:37:48.296Z,68.22
2019-03-21T23:40:15.721Z,68.77
2019-03-21T23:42:42.910Z,68.38
2019-03-21T23:45:10.432Z,68.49
2019-03-21T23:47:37.618Z,68.16
2019-03-21T23:50:06.336Z,67.74
2019-03-21T23:52:33.404Z,68.82
2019-03-21T23:55:00.597Z,69.03
2019-03-21T23:57:27.756Z,69.12
2019-03-21T23:59:55.053Z,68.72
